createdAt,value
2019-03-19T00:00:07.112Z,90.15
2019-03-19T00:01:07.283Z,90.25
2019-03-19T00:02:07.464Z,90.44
2019-03-19T00:03:07.651Z,90.25
2019-03-19T00:04:07.768Z,90.15
2019-03-19T00:05:07.849Z,89.87
2019-03-19T00:06:08.151Z,89.58
2019-03-19T00:07:08.241Z,89.30
2019-03-19T00:08:08.323Z,89.30
2019-03-19T00:09:08.432Z,89.39
2019-03-19T00:10:08.649Z,89.20
2019-03-19T00:11:08.761Z,89.01
2019-03-19T00:12:08.854Z,89.58
2019-03-19T00:13:09.028Z,89.87
2019-03-19T00:14:09.213Z,89.49
2019-03-19T00:15:09.387Z,89.77
2019-03-19T00:16:09.583Z,89.96
2019-03-19T00:17:09.950Z,89.96
2019-03-19T00:18:10.037Z,90.44
2019-03-19T00:19:10.245Z,90.25
2019-03-19T00:20:10.218Z,90.44
2019-03-19T00:21:10.370Z,90.34
2019-03-19T00:22:10.554Z,90.25
2019-03-19T00:23:10.706Z,90.25
2019-03-19T00:24:10.828Z,90.25
2019-03-19T00:25:11.062Z,90.63
2019-03-19T00:26:11.846Z,90.53
2019-03-19T00:27:11.380Z,91.00
2019-03-19T00:28:11.406Z,90.63
2019-03-19T00:29:11.630Z,90.63
2019-03-19T00:30:11.806Z,90.44
2019-03-19T00:31:11.979Z,90.34
2019-03-19T00:32:12.177Z,90.44
2019-03-19T00:33:12.392Z,91.38
2019-03-19T00:34:12.460Z,90.53
2019-03-19T00:35:12.711Z,90.06
2019-03-19T00:36:12.881Z,90.44
2019-03-19T00:37:13.089Z,91.10
2019-03-19T00:38:13.156Z,91.00
2019-03-19T00:39:13.343Z,91.19
2019-03-19T00:40:13.501Z,91.10
2019-03-19T00:41:14.312Z,91.00
2019-03-19T00:42:13.896Z,91.29
2019-03-19T00:43:13.909Z,90.81
2019-03-19T00:44:14.424Z,90.44
2019-03-19T00:45:14.298Z,90.72
2019-03-19T00:46:14.722Z,90.72
2019-03-19T00:47:14.701Z,90.91
2019-03-19T00:48:14.760Z,90.67
2019-03-19T00:49:14.927Z,90.63
2019-03-19T00:50:15.127Z,90.91
2019-03-19T00:51:15.296Z,90.81
2019-03-19T00:52:15.510Z,91.19
2019-03-19T00:53:16.228Z,91.00
2019-03-19T00:54:16.068Z,91.19
2019-03-19T00:55:15.969Z,91.48
2019-03-19T00:56:16.151Z,91.19
2019-03-19T00:57:16.342Z,91.00
2019-03-19T00:58:16.526Z,90.72
2019-03-19T00:59:16.716Z,91.00
2019-03-19T01:00:16.991Z,90.39
2019-03-19T01:01:17.074Z,90.58
2019-03-19T01:02:17.269Z,90.44
2019-03-19T01:03:17.679Z,90.48
2019-03-19T01:04:17.618Z,90.58
2019-03-19T01:05:17.731Z,90.96
2019-03-19T01:06:19.485Z,91.43
2019-03-19T01:07:18.105Z,91.15
2019-03-19T01:08:18.259Z,91.24
2019-03-19T01:09:18.456Z,91.72
2019-03-19T01:10:18.577Z,92.10
2019-03-19T01:11:18.750Z,92.00
2019-03-19T01:12:18.984Z,92.00
2019-03-19T01:13:19.259Z,92.00
2019-03-19T01:14:19.270Z,92.38
2019-03-19T01:15:19.482Z,92.52
2019-03-19T01:16:19.564Z,92.99
2019-03-19T01:17:19.758Z,92.94
2019-03-19T01:18:20.010Z,92.24
2019-03-19T01:19:20.067Z,92.29
2019-03-19T01:20:20.240Z,92.00
2019-03-19T01:21:20.412Z,91.53
2019-03-19T01:22:20.671Z,91.38
2019-03-19T01:23:20.745Z,90.77
2019-03-19T01:24:20.932Z,90.39
2019-03-19T01:25:21.100Z,90.86
2019-03-19T01:26:21.210Z,89.82
2019-03-19T01:27:21.391Z,90.39
2019-03-19T01:28:21.467Z,90.48
2019-03-19T01:29:21.558Z,91.05
2019-03-19T01:30:21.773Z,90.86
2019-03-19T01:31:22.208Z,91.24
2019-03-19T01:32:22.036Z,91.53
2019-03-19T01:33:22.221Z,91.34
2019-03-19T01:34:22.390Z,92.00
2019-03-19T01:35:22.489Z,92.00
2019-03-19T01:36:22.649Z,92.29
2019-03-19T01:37:22.873Z,92.10
2019-03-19T01:38:23.068Z,92.00
2019-03-19T01:39:23.221Z,91.34
2019-03-19T01:40:23.311Z,92.00
2019-03-19T01:41:23.481Z,91.81
2019-03-19T01:42:23.718Z,91.43
2019-03-19T01:43:23.778Z,91.43
2019-03-19T01:44:23.962Z,91.15
2019-03-19T01:45:25.162Z,91.43
2019-03-19T01:46:24.261Z,90.86
2019-03-19T01:47:24.443Z,91.24
2019-03-19T01:48:24.611Z,91.15
2019-03-19T01:49:24.776Z,91.24
2019-03-19T01:50:24.870Z,92.10
2019-03-19T01:51:24.974Z,92.00
2019-03-19T01:52:25.339Z,92.66
2019-03-19T01:53:25.373Z,92.76
2019-03-19T01:54:25.528Z,93.32
2019-03-19T01:55:25.812Z,93.80
2019-03-19T01:56:25.927Z,93.42
2019-03-19T01:57:26.119Z,93.51
2019-03-19T01:58:26.241Z,93.70
2019-03-19T01:59:26.452Z,93.32
2019-03-19T02:00:26.665Z,93.23
2019-03-19T02:01:26.765Z,93.04
2019-03-19T02:02:26.912Z,92.57
2019-03-19T02:03:27.039Z,92.57
2019-03-19T02:04:27.230Z,92.94
2019-03-19T02:05:27.462Z,93.13
2019-03-19T02:06:27.576Z,92.94
2019-03-19T02:07:27.722Z,92.85
2019-03-19T02:08:27.904Z,92.66
2019-03-19T02:09:28.113Z,92.29
2019-03-19T02:10:28.280Z,91.62
2019-03-19T02:11:28.465Z,91.81
2019-03-19T02:12:28.686Z,92.10
2019-03-19T02:13:28.751Z,92.57
2019-03-19T02:14:28.872Z,92.00
2019-03-19T02:15:29.068Z,92.10
2019-03-19T02:16:29.355Z,92.29
2019-03-19T02:17:29.442Z,92.19
2019-03-19T02:18:29.548Z,91.91
2019-03-19T02:19:29.777Z,92.10
2019-03-19T02:20:29.941Z,91.91
2019-03-19T02:21:30.152Z,92.19
2019-03-19T02:22:30.219Z,91.81
2019-03-19T02:23:30.434Z,91.81
2019-03-19T02:24:30.539Z,92.10
2019-03-19T02:25:30.684Z,91.53
2019-03-19T02:26:30.989Z,92.00
2019-03-19T02:27:30.991Z,91.72
2019-03-19T02:28:31.164Z,92.00
2019-03-19T02:29:31.325Z,91.62
2019-03-19T02:30:31.501Z,92.00
2019-03-19T02:31:31.681Z,92.00
2019-03-19T02:32:31.833Z,91.81
2019-03-19T02:33:32.053Z,92.19
2019-03-19T02:34:32.150Z,91.91
2019-03-19T02:35:32.438Z,92.10
2019-03-19T02:36:32.610Z,91.91
2019-03-19T02:37:32.668Z,91.91
2019-03-19T02:38:33.079Z,91.91
2019-03-19T02:39:32.985Z,91.91
2019-03-19T02:40:33.138Z,91.91
2019-03-19T02:41:33.447Z,92.19
2019-03-19T02:42:33.603Z,92.57
2019-03-19T02:43:34.772Z,92.38
2019-03-19T02:44:34.060Z,92.38
2019-03-19T02:45:34.095Z,92.47
2019-03-19T02:46:34.315Z,91.81
2019-03-19T02:47:34.531Z,92.00
2019-03-19T02:48:34.678Z,92.00
2019-03-19T02:49:35.000Z,92.00
2019-03-19T02:50:34.827Z,91.91
2019-03-19T02:51:34.975Z,92.00
2019-03-19T02:52:35.140Z,91.62
2019-03-19T02:53:35.236Z,92.10
2019-03-19T02:54:35.550Z,92.00
2019-03-19T02:55:35.583Z,91.53
2019-03-19T02:56:35.772Z,91.62
2019-03-19T02:57:36.078Z,91.43
2019-03-19T02:58:36.091Z,91.24
2019-03-19T02:59:36.145Z,92.10
2019-03-19T03:00:38.111Z,92.10
2019-03-19T03:01:36.455Z,92.29
2019-03-19T03:02:36.597Z,92.85
2019-03-19T03:03:36.809Z,92.76
2019-03-19T03:04:36.944Z,92.57
2019-03-19T03:05:37.045Z,93.32
2019-03-19T03:06:37.213Z,92.85
2019-03-19T03:07:37.371Z,92.76
2019-03-19T03:08:38.143Z,92.94
2019-03-19T03:09:41.195Z,92.29
2019-03-19T03:10:38.974Z,92.00
2019-03-19T03:11:38.073Z,92.38
2019-03-19T03:12:38.221Z,91.81
2019-03-19T03:13:38.370Z,91.81
2019-03-19T03:14:38.510Z,92.00
2019-03-19T03:15:38.567Z,91.34
2019-03-19T03:16:41.662Z,91.34
2019-03-19T03:17:42.007Z,91.81
2019-03-19T03:18:39.118Z,92.29
2019-03-19T03:19:39.156Z,91.53
2019-03-19T03:20:39.351Z,92.43
2019-03-19T03:21:39.478Z,92.29
2019-03-19T03:22:39.561Z,92.57
2019-03-19T03:23:39.774Z,92.76
2019-03-19T03:24:39.946Z,93.13
2019-03-19T03:25:40.144Z,93.51
2019-03-19T03:26:47.598Z,93.80
2019-03-19T03:27:40.621Z,93.56
2019-03-19T03:28:40.624Z,93.80
2019-03-19T03:29:40.952Z,93.85
2019-03-19T03:30:40.901Z,94.37
2019-03-19T03:31:41.109Z,94.42
2019-03-19T03:32:41.371Z,93.70
2019-03-19T03:33:41.547Z,93.61
2019-03-19T03:34:41.618Z,92.99
2019-03-19T03:35:41.857Z,92.61
2019-03-19T03:36:42.105Z,92.80
2019-03-19T03:37:42.169Z,92.99
2019-03-19T03:38:42.354Z,92.61
2019-03-19T03:39:42.543Z,92.61
2019-03-19T03:40:42.786Z,92.99
2019-03-19T03:41:42.895Z,92.90
2019-03-19T03:42:43.483Z,93.47
2019-03-19T03:43:43.330Z,93.47
2019-03-19T03:44:43.396Z,93.56
2019-03-19T03:45:43.579Z,94.51
2019-03-19T03:46:43.730Z,94.23
2019-03-19T03:47:44.001Z,94.32
2019-03-19T03:48:44.074Z,94.32
2019-03-19T03:49:44.318Z,94.32
2019-03-19T03:50:44.433Z,93.70
2019-03-19T03:51:44.621Z,93.61
2019-03-19T03:52:44.804Z,93.23
2019-03-19T03:53:44.982Z,92.80
2019-03-19T03:54:45.139Z,92.90
2019-03-19T03:55:45.327Z,92.90
2019-03-19T03:56:45.453Z,92.52
2019-03-19T03:57:45.628Z,92.71
2019-03-19T03:58:59.644Z,92.71
2019-03-19T03:59:45.907Z,92.99
2019-03-19T04:00:46.120Z,92.99
2019-03-19T04:01:46.237Z,92.71
2019-03-19T04:02:46.495Z,92.71
2019-03-19T04:03:46.572Z,92.80
2019-03-19T04:04:46.704Z,92.71
2019-03-19T04:05:46.839Z,92.99
2019-03-19T04:06:47.154Z,92.43
2019-03-19T04:07:47.189Z,92.24
2019-03-19T04:08:47.398Z,92.33
2019-03-19T04:09:47.573Z,92.14
2019-03-19T04:10:47.660Z,92.43
2019-03-19T04:11:47.917Z,92.90
2019-03-19T04:12:47.959Z,92.61
2019-03-19T04:13:48.140Z,92.43
2019-03-19T04:14:48.295Z,92.71
2019-03-19T04:15:48.511Z,92.99
2019-03-19T04:16:48.667Z,93.28
2019-03-19T04:17:48.860Z,93.47
2019-03-19T04:18:49.072Z,93.18
2019-03-19T04:19:49.875Z,93.56
2019-03-19T04:20:49.349Z,93.56
2019-03-19T04:21:49.715Z,93.56
2019-03-19T04:22:49.705Z,93.66
2019-03-19T04:23:49.866Z,93.85
2019-03-19T04:24:50.025Z,93.75
2019-03-19T04:25:50.230Z,94.42
2019-03-19T04:26:50.371Z,94.23
2019-03-19T04:27:50.555Z,94.23
2019-03-19T04:28:50.748Z,94.23
2019-03-19T04:29:50.919Z,94.32
2019-03-19T04:30:51.080Z,93.85
2019-03-19T04:31:51.242Z,93.37
2019-03-19T04:32:51.414Z,93.66
2019-03-19T04:33:51.555Z,93.47
2019-03-19T04:34:51.770Z,93.66
2019-03-19T04:35:51.989Z,93.56
2019-03-19T04:36:52.023Z,93.66
2019-03-19T04:37:52.183Z,93.66
2019-03-19T04:38:52.292Z,93.18
2019-03-19T04:39:52.438Z,93.37
2019-03-19T04:40:52.512Z,93.28
2019-03-19T04:41:52.766Z,93.47
2019-03-19T04:42:52.940Z,93.56
2019-03-19T04:43:53.045Z,93.47
2019-03-19T04:44:53.301Z,93.37
2019-03-19T04:45:53.517Z,93.37
2019-03-19T04:46:53.677Z,93.18
2019-03-19T04:47:53.886Z,93.18
2019-03-19T04:48:54.046Z,92.90
2019-03-19T04:49:54.261Z,92.90
2019-03-19T04:50:54.394Z,92.90
2019-03-19T04:51:54.424Z,92.14
2019-03-19T04:52:54.611Z,91.58
2019-03-19T04:53:54.771Z,91.96
2019-03-19T04:54:54.939Z,92.24
2019-03-19T04:55:55.151Z,92.52
2019-03-19T04:56:55.364Z,92.33
2019-03-19T04:57:55.558Z,92.05
2019-03-19T04:58:55.617Z,92.61
2019-03-19T04:59:55.728Z,92.80
2019-03-19T05:00:55.912Z,92.80
2019-03-19T05:01:56.068Z,92.61
2019-03-19T05:02:56.265Z,92.43
2019-03-19T05:03:56.451Z,92.71
2019-03-19T05:04:56.612Z,92.71
2019-03-19T05:05:56.769Z,92.71
2019-03-19T05:06:56.966Z,92.90
2019-03-19T05:07:57.114Z,93.37
2019-03-19T05:08:57.268Z,93.47
2019-03-19T05:09:57.506Z,94.32
2019-03-19T05:10:57.565Z,94.60
2019-03-19T05:11:57.717Z,94.70
2019-03-19T05:12:57.943Z,94.60
2019-03-19T05:13:58.140Z,94.13
2019-03-19T05:14:58.193Z,94.23
2019-03-19T05:15:58.436Z,94.13
2019-03-19T05:16:58.521Z,94.32
2019-03-19T05:17:58.683Z,94.32
2019-03-19T05:18:58.881Z,94.32
2019-03-19T05:19:58.994Z,94.23
2019-03-19T05:20:59.101Z,94.32
2019-03-19T05:21:59.228Z,94.32
2019-03-19T05:22:59.449Z,93.66
2019-03-19T05:23:59.634Z,93.37
2019-03-19T05:24:59.813Z,93.37
2019-03-19T05:25:59.980Z,93.56
2019-03-19T05:27:01.140Z,93.75
2019-03-19T05:28:00.803Z,93.56
2019-03-19T05:29:00.542Z,93.28
2019-03-19T05:30:00.767Z,93.75
2019-03-19T05:31:00.903Z,92.99
2019-03-19T05:32:01.026Z,92.99
2019-03-19T05:33:01.244Z,93.18
2019-03-19T05:34:01.410Z,93.37
2019-03-19T05:35:01.589Z,92.99
2019-03-19T05:36:01.788Z,92.61
2019-03-19T05:37:02.013Z,92.52
2019-03-19T05:38:02.041Z,92.14
2019-03-19T05:39:02.276Z,92.33
2019-03-19T05:40:02.467Z,91.96
2019-03-19T05:41:02.617Z,91.39
2019-03-19T05:42:02.822Z,92.14
2019-03-19T05:43:03.072Z,91.77
2019-03-19T05:44:03.132Z,91.96
2019-03-19T05:45:03.442Z,92.33
2019-03-19T05:46:03.468Z,92.61
2019-03-19T05:47:05.390Z,92.80
2019-03-19T05:48:05.489Z,92.80
2019-03-19T05:49:04.915Z,92.80
2019-03-19T05:50:06.869Z,92.90
2019-03-19T05:51:04.247Z,93.28
2019-03-19T05:52:04.616Z,92.99
2019-03-19T05:53:04.799Z,93.28
2019-03-19T05:54:05.535Z,93.18
2019-03-19T05:55:04.942Z,93.56
2019-03-19T05:56:07.244Z,93.66
2019-03-19T05:57:05.214Z,93.66
2019-03-19T05:58:05.272Z,93.66
2019-03-19T05:59:05.365Z,94.42
2019-03-19T06:00:07.328Z,94.32
2019-03-19T06:01:05.778Z,94.04
2019-03-19T06:02:05.930Z,93.66
2019-03-19T06:03:05.993Z,93.47
2019-03-19T06:04:06.134Z,92.99
2019-03-19T06:05:06.232Z,92.71
2019-03-19T06:06:06.393Z,92.14
2019-03-19T06:07:06.537Z,92.24
2019-03-19T06:08:06.685Z,92.24
2019-03-19T06:09:06.847Z,91.96
2019-03-19T06:10:06.937Z,91.96
2019-03-19T06:11:07.084Z,92.33
2019-03-19T06:12:08.937Z,92.71
2019-03-19T06:13:07.530Z,93.13
2019-03-19T06:14:07.711Z,93.04
2019-03-19T06:15:07.813Z,92.52
2019-03-19T06:16:09.726Z,92.80
2019-03-19T06:17:08.024Z,92.57
2019-03-19T06:18:08.210Z,92.05
2019-03-19T06:19:08.425Z,91.72
2019-03-19T06:20:08.615Z,91.24
2019-03-19T06:21:09.677Z,90.96
2019-03-19T06:22:09.015Z,90.58
2019-03-19T06:23:09.030Z,90.86
2019-03-19T06:24:09.239Z,90.86
2019-03-19T06:25:09.442Z,90.58
2019-03-19T06:26:09.482Z,90.67
2019-03-19T06:27:11.019Z,90.48
2019-03-19T06:28:09.802Z,90.86
2019-03-19T06:29:10.045Z,91.15
2019-03-19T06:30:10.237Z,90.77
2019-03-19T06:31:10.411Z,90.58
2019-03-19T06:32:10.608Z,90.67
2019-03-19T06:33:10.842Z,90.44
2019-03-19T06:34:10.877Z,90.34
2019-03-19T06:35:11.159Z,90.15
2019-03-19T06:36:11.265Z,90.06
2019-03-19T06:37:11.464Z,90.44
2019-03-19T06:38:11.738Z,89.96
2019-03-19T06:39:11.724Z,89.68
2019-03-19T06:40:11.905Z,89.49
2019-03-19T06:41:12.082Z,88.54
2019-03-19T06:42:12.268Z,88.17
2019-03-19T06:43:12.415Z,87.45
2019-03-19T06:44:12.583Z,87.16
2019-03-19T06:45:12.857Z,86.22
2019-03-19T06:46:12.970Z,84.94
2019-03-19T06:47:13.146Z,83.51
2019-03-19T06:48:13.346Z,81.85
2019-03-19T06:49:13.496Z,80.52
2019-03-19T06:50:13.787Z,79.95
2019-03-19T06:51:13.878Z,78.95
2019-03-19T06:52:14.005Z,77.81
2019-03-19T06:53:15.499Z,76.86
2019-03-19T06:54:17.018Z,76.04
2019-03-19T06:55:14.947Z,75.47
2019-03-19T06:56:15.507Z,74.66
2019-03-19T06:57:15.758Z,72.89
2019-03-19T06:58:15.286Z,71.12
2019-03-19T06:59:17.842Z,69.15
2019-03-19T07:00:15.185Z,67.57
2019-03-19T07:01:17.371Z,65.23
2019-03-19T07:02:15.643Z,63.73
2019-03-19T07:03:15.707Z,62.05
2019-03-19T07:04:15.968Z,60.46
2019-03-19T07:05:16.149Z,58.77
2019-03-19T07:06:16.174Z,57.43
2019-03-19T07:07:16.358Z,57.06
2019-03-19T07:08:17.627Z,55.75
2019-03-19T07:09:16.803Z,55.84
2019-03-19T07:10:16.924Z,55.34
2019-03-19T07:11:17.437Z,55.27
2019-03-19T07:12:19.488Z,54.70
2019-03-19T07:13:18.147Z,54.99
2019-03-19T07:14:17.788Z,54.41
2019-03-19T07:15:18.996Z,53.93
2019-03-19T07:16:17.982Z,53.86
2019-03-19T07:17:18.057Z,53.67
2019-03-19T07:18:18.370Z,53.29
2019-03-19T07:19:18.407Z,53.20
2019-03-19T07:20:18.477Z,52.81
2019-03-19T07:21:18.677Z,52.81
2019-03-19T07:22:18.777Z,52.91
2019-03-19T07:23:19.004Z,52.46
2019-03-19T07:24:19.239Z,52.17
2019-03-19T07:25:19.597Z,52.08
2019-03-19T07:26:19.474Z,52.65
2019-03-19T07:27:19.669Z,52.75
2019-03-19T07:28:22.514Z,52.26
2019-03-19T07:29:20.036Z,51.81
2019-03-19T07:30:20.188Z,51.50
2019-03-19T07:31:30.317Z,52.17
2019-03-19T07:32:20.439Z,52.26
2019-03-19T07:33:20.732Z,52.17
2019-03-19T07:34:20.737Z,52.26
2019-03-19T07:35:22.943Z,52.17
2019-03-19T07:36:22.873Z,51.72
2019-03-19T07:37:21.330Z,51.34
2019-03-19T07:40:21.490Z,52.20
2019-03-19T07:41:08.727Z,51.53
2019-03-19T07:41:56.297Z,51.34
2019-03-19T07:43:16.578Z,51.34
2019-03-19T07:43:56.888Z,51.81
2019-03-19T07:44:58.140Z,51.81
2019-03-19T07:45:56.608Z,52.39
2019-03-19T07:46:56.162Z,51.72
2019-03-19T07:47:56.677Z,51.91
2019-03-19T07:48:56.545Z,51.81
2019-03-19T07:49:56.614Z,51.34
2019-03-19T07:50:56.796Z,50.95
2019-03-19T07:51:56.982Z,51.34
2019-03-19T07:52:57.481Z,51.05
2019-03-19T07:54:06.393Z,51.91
2019-03-19T07:55:01.505Z,51.34
2019-03-19T07:55:58.071Z,51.24
2019-03-19T07:56:57.789Z,51.91
2019-03-19T07:57:58.138Z,52.10
2019-03-19T07:58:58.358Z,51.98
2019-03-19T08:00:07.640Z,52.48
2019-03-19T08:00:58.673Z,52.75
2019-03-19T08:01:58.953Z,52.94
2019-03-19T08:02:58.896Z,52.58
2019-03-19T08:03:58.936Z,52.48
2019-03-19T08:05:01.320Z,52.77
2019-03-19T08:06:00.597Z,52.39
2019-03-19T08:06:59.470Z,52.39
2019-03-19T08:07:59.779Z,51.93
2019-03-19T08:08:59.918Z,52.22
2019-03-19T08:10:00.307Z,51.39
2019-03-19T08:11:00.235Z,50.05
2019-03-19T08:12:00.343Z,50.24
2019-03-19T08:13:00.525Z,50.81
2019-03-19T08:14:00.639Z,50.72
2019-03-19T08:15:00.905Z,51.17
2019-03-19T08:16:03.349Z,51.56
2019-03-19T08:17:03.197Z,51.58
2019-03-19T08:18:02.290Z,51.29
2019-03-19T08:19:02.255Z,51.68
2019-03-19T08:20:02.652Z,51.68
2019-03-19T08:21:03.412Z,52.06
2019-03-19T08:22:06.512Z,52.25
2019-03-19T08:23:03.279Z,51.77
2019-03-19T08:24:03.651Z,51.58
2019-03-19T08:25:04.214Z,51.58
2019-03-19T08:26:03.516Z,52.13
2019-03-19T08:27:03.429Z,52.32
2019-03-19T08:28:03.297Z,52.73
2019-03-19T08:29:03.206Z,52.73
2019-03-19T08:30:03.444Z,52.25
2019-03-19T08:31:03.622Z,51.87
2019-03-19T08:32:03.799Z,51.29
2019-03-19T08:33:04.972Z,51.03
2019-03-19T08:34:10.994Z,50.65
2019-03-19T08:35:13.393Z,51.22
2019-03-19T08:42:48.512Z,54.11
2019-03-19T08:43:17.173Z,54.23
2019-03-19T08:44:15.599Z,53.37
2019-03-19T08:45:14.276Z,54.16
2019-03-19T08:46:15.487Z,53.04
2019-03-19T08:47:14.310Z,52.50
2019-03-19T08:48:13.631Z,51.63
2019-03-19T08:49:14.930Z,50.60
2019-03-19T08:50:14.445Z,49.86
2019-03-19T08:51:14.081Z,49.69
2019-03-19T08:52:14.290Z,48.44
2019-03-19T08:53:14.512Z,47.51
2019-03-19T08:54:14.579Z,46.26
2019-03-19T08:55:14.664Z,44.10
2019-03-19T08:56:15.098Z,43.50
2019-03-19T08:57:16.030Z,42.43
2019-03-19T08:58:16.487Z,42.81
2019-03-19T08:59:15.507Z,42.21
2019-03-19T09:00:15.768Z,42.16
2019-03-19T09:01:15.733Z,42.08
2019-03-19T09:02:15.922Z,41.43
2019-03-19T09:03:16.110Z,40.30
2019-03-19T09:04:16.439Z,39.14
2019-03-19T09:05:16.573Z,38.20
2019-03-19T09:06:16.510Z,38.29
2019-03-19T09:07:16.722Z,38.22
2019-03-19T09:08:16.749Z,38.28
2019-03-19T09:09:16.965Z,39.49
2019-03-19T09:10:17.199Z,40.67
2019-03-19T09:11:17.285Z,42.10
2019-03-19T09:12:18.213Z,42.17
2019-03-19T09:13:18.484Z,41.74
2019-03-19T09:14:19.296Z,43.35
2019-03-19T09:15:19.335Z,43.59
2019-03-19T09:16:19.862Z,43.44
2019-03-19T09:17:19.588Z,41.93
2019-03-19T09:18:18.790Z,40.79
2019-03-19T09:19:18.793Z,39.95
2019-03-19T09:20:20.675Z,39.58
2019-03-19T09:21:19.260Z,38.62
2019-03-19T09:22:19.963Z,38.35
2019-03-19T09:23:19.434Z,38.35
2019-03-19T09:24:19.626Z,38.01
2019-03-19T09:25:19.686Z,37.54
2019-03-19T09:26:19.817Z,36.82
2019-03-19T09:27:20.199Z,37.57
2019-03-19T09:28:20.308Z,38.02
2019-03-19T09:29:20.503Z,38.51
2019-03-19T09:30:20.671Z,38.35
2019-03-19T09:31:20.912Z,37.34
2019-03-19T09:32:21.766Z,37.12
2019-03-19T09:33:21.642Z,36.85
2019-03-19T09:34:21.350Z,35.52
2019-03-19T09:35:21.424Z,35.14
2019-03-19T09:36:21.682Z,35.22
2019-03-19T09:37:21.762Z,34.92
2019-03-19T09:38:21.852Z,35.22
2019-03-19T09:39:22.145Z,36.05
2019-03-19T09:40:22.251Z,37.55
2019-03-19T09:41:22.440Z,37.72
2019-03-19T09:42:23.225Z,37.41
2019-03-19T09:43:22.841Z,37.32
2019-03-19T09:44:23.023Z,38.09
2019-03-19T09:45:23.233Z,38.66
2019-03-19T09:46:23.495Z,38.53
2019-03-19T09:47:23.589Z,39.28
2019-03-19T09:48:23.704Z,39.45
2019-03-19T09:49:23.864Z,39.66
2019-03-19T09:50:24.005Z,39.85
2019-03-19T09:51:24.155Z,39.31
2019-03-19T09:52:24.327Z,39.12
2019-03-19T09:53:24.580Z,39.77
2019-03-19T09:54:24.674Z,40.78
2019-03-19T09:55:24.770Z,42.13
2019-03-19T09:56:24.838Z,43.35
2019-03-19T09:57:25.233Z,43.71
2019-03-19T09:58:25.186Z,44.29
2019-03-19T09:59:32.898Z,44.19
2019-03-19T10:00:25.617Z,43.62
2019-03-19T10:01:25.640Z,43.16
2019-03-19T10:02:26.343Z,43.68
2019-03-19T10:03:25.997Z,43.84
2019-03-19T10:04:28.227Z,40.94
2019-03-19T10:05:26.369Z,41.11
2019-03-19T10:06:26.486Z,41.88
2019-03-19T10:07:26.574Z,40.47
2019-03-19T10:08:26.766Z,39.48
2019-03-19T10:09:26.957Z,39.65
2019-03-19T10:10:27.103Z,40.41
2019-03-19T10:11:34.512Z,41.44
2019-03-19T10:12:29.874Z,41.82
2019-03-19T10:13:39.322Z,41.89
2019-03-19T10:14:30.573Z,42.01
2019-03-19T10:15:30.579Z,41.78
2019-03-19T10:16:29.202Z,40.00
2019-03-19T10:17:36.533Z,39.83
2019-03-19T10:18:30.229Z,39.81
2019-03-19T10:19:28.706Z,39.70
2019-03-19T10:20:28.731Z,39.75
2019-03-19T10:21:28.856Z,40.52
2019-03-19T10:22:28.999Z,40.92
2019-03-19T10:23:29.261Z,42.05
2019-03-19T10:24:29.301Z,41.46
2019-03-19T10:25:29.547Z,41.46
2019-03-19T10:26:29.653Z,41.72
2019-03-19T10:27:29.828Z,41.05
2019-03-19T10:28:30.052Z,41.89
2019-03-19T10:29:37.802Z,42.37
2019-03-19T10:30:30.598Z,42.37
2019-03-19T10:31:30.731Z,42.44
2019-03-19T10:32:30.705Z,42.07
2019-03-19T10:33:31.650Z,41.85
2019-03-19T10:34:33.946Z,42.43
2019-03-19T10:35:32.067Z,43.29
2019-03-19T10:36:32.125Z,43.66
2019-03-19T10:37:31.897Z,43.88
2019-03-19T10:38:31.988Z,44.29
2019-03-19T10:39:34.969Z,42.72
2019-03-19T10:40:38.902Z,40.94
2019-03-19T10:41:35.495Z,39.37
2019-03-19T10:42:32.503Z,37.87
2019-03-19T10:45:07.912Z,34.27
2019-03-19T10:46:05.872Z,33.73
2019-03-19T10:47:07.774Z,31.24
2019-03-19T10:48:09.738Z,30.87
2019-03-19T10:49:08.404Z,29.72
2019-03-19T10:50:06.815Z,29.74
2019-03-19T10:51:06.790Z,29.75
2019-03-19T10:52:13.950Z,29.36
2019-03-19T10:53:07.180Z,29.43
2019-03-19T10:54:10.159Z,30.58
2019-03-19T10:55:07.591Z,30.16
2019-03-19T10:56:07.574Z,30.42
2019-03-19T10:57:07.809Z,31.93
2019-03-19T10:58:11.367Z,33.91
2019-03-19T10:59:09.824Z,34.57
2019-03-19T11:00:08.536Z,35.02
2019-03-19T11:01:08.664Z,36.07
2019-03-19T11:02:08.771Z,36.91
2019-03-19T11:03:08.847Z,37.20
2019-03-19T11:04:09.051Z,37.95
2019-03-19T11:05:09.180Z,39.01
2019-03-19T11:06:11.974Z,38.89
2019-03-19T11:07:09.433Z,39.18
2019-03-19T11:08:09.602Z,39.06
2019-03-19T11:09:09.772Z,39.10
2019-03-19T11:10:43.058Z,38.10
2019-03-19T11:11:13.476Z,36.11
2019-03-19T11:13:43.935Z,34.05
2019-03-19T11:14:45.916Z,32.04
2019-03-19T11:15:42.542Z,30.71
2019-03-19T11:16:42.542Z,30.80
2019-03-19T11:17:47.487Z,29.76
2019-03-19T11:18:55.842Z,27.83
2019-03-19T11:20:01.102Z,27.96
2019-03-19T11:20:46.299Z,27.96
2019-03-19T11:21:43.226Z,26.44
2019-03-19T11:22:43.266Z,26.73
2019-03-19T11:23:43.590Z,27.13
2019-03-19T11:24:43.857Z,26.84
2019-03-19T11:25:54.083Z,26.86
2019-03-19T11:26:47.795Z,26.35
2019-03-19T11:27:44.603Z,26.28
2019-03-19T11:28:44.520Z,26.37
2019-03-19T11:29:59.392Z,25.78
2019-03-19T11:30:44.887Z,26.15
2019-03-19T11:31:49.215Z,27.12
2019-03-19T11:32:45.282Z,26.65
2019-03-19T11:33:47.816Z,26.37
2019-03-19T11:34:45.620Z,26.39
2019-03-19T11:35:47.653Z,27.04
2019-03-19T11:36:57.490Z,26.28
2019-03-19T11:37:45.987Z,26.29
2019-03-19T11:38:47.812Z,26.59
2019-03-19T11:39:46.445Z,26.54
2019-03-19T11:40:46.525Z,27.08
2019-03-19T11:41:47.907Z,28.03
2019-03-19T11:42:47.151Z,28.67
2019-03-19T11:43:47.097Z,30.18
2019-03-19T11:44:47.417Z,31.59
2019-03-19T11:45:47.638Z,33.59
2019-03-19T11:46:47.960Z,34.25
2019-03-19T11:47:49.328Z,35.40
2019-03-19T11:48:48.647Z,35.10
2019-03-19T11:49:48.234Z,35.55
2019-03-19T11:50:48.341Z,36.13
2019-03-19T11:51:48.491Z,36.51
2019-03-19T11:52:48.771Z,36.59
2019-03-19T11:53:54.181Z,36.98
2019-03-19T11:54:54.265Z,35.57
2019-03-19T11:55:49.258Z,35.65
2019-03-19T11:56:50.572Z,36.22
2019-03-19T11:57:52.410Z,35.36
2019-03-19T11:58:49.626Z,35.63
2019-03-19T11:59:49.858Z,35.25
2019-03-19T12:00:50.045Z,36.00
2019-03-19T12:01:50.249Z,36.67
2019-03-19T12:02:53.826Z,37.34
2019-03-19T12:03:50.697Z,37.80
2019-03-19T12:04:50.893Z,38.28
2019-03-19T12:05:50.941Z,38.45
2019-03-19T12:06:51.103Z,38.95
2019-03-19T12:07:51.610Z,39.72
2019-03-19T12:08:51.967Z,39.81
2019-03-19T12:09:52.851Z,38.85
2019-03-19T12:10:51.831Z,39.33
2019-03-19T12:11:54.422Z,39.23
2019-03-19T12:12:52.378Z,39.90
2019-03-19T12:13:56.401Z,39.89
2019-03-19T12:14:55.569Z,39.69
2019-03-19T12:15:54.339Z,39.58
2019-03-19T12:16:52.964Z,40.06
2019-03-19T12:17:53.002Z,41.49
2019-03-19T12:18:53.343Z,41.87
2019-03-19T12:19:53.526Z,41.49
2019-03-19T12:20:53.800Z,41.01
2019-03-19T12:21:53.911Z,41.97
2019-03-19T12:22:53.912Z,41.87
2019-03-19T12:23:56.892Z,41.97
2019-03-19T12:24:54.276Z,42.44
2019-03-19T12:25:54.475Z,42.83
2019-03-19T12:26:54.496Z,42.64
2019-03-19T12:27:54.739Z,41.97
2019-03-19T12:29:02.399Z,41.32
2019-03-19T12:29:57.712Z,40.94
2019-03-19T12:31:01.159Z,40.84
2019-03-19T12:31:56.372Z,40.38
2019-03-19T12:32:57.478Z,39.69
2019-03-19T12:33:57.364Z,39.60
2019-03-19T12:35:03.540Z,39.60
2019-03-19T12:35:57.952Z,39.00
2019-03-19T12:37:05.058Z,39.22
2019-03-19T12:37:56.237Z,39.89
2019-03-19T12:38:56.257Z,39.89
2019-03-19T12:39:56.398Z,39.69
2019-03-19T12:40:56.637Z,39.10
2019-03-19T12:41:56.862Z,39.67
2019-03-19T12:42:57.139Z,40.72
2019-03-19T12:43:57.444Z,40.92
2019-03-19T12:44:57.743Z,40.99
2019-03-19T12:45:57.534Z,41.18
2019-03-19T12:46:57.697Z,40.99
2019-03-19T12:47:58.289Z,40.89
2019-03-19T12:48:58.000Z,41.28
2019-03-19T12:49:58.205Z,41.66
2019-03-19T12:50:58.392Z,42.52
2019-03-19T12:52:02.141Z,42.52
2019-03-19T12:53:00.420Z,42.33
2019-03-19T12:55:31.585Z,42.61
2019-03-19T12:56:31.626Z,42.71
2019-03-19T12:57:31.842Z,43.19
2019-03-19T12:58:31.897Z,42.90
2019-03-19T12:59:32.103Z,42.14
2019-03-19T13:00:35.364Z,40.89
2019-03-19T13:01:36.520Z,40.89
2019-03-19T13:02:33.200Z,40.52
2019-03-19T13:03:34.982Z,41.18
2019-03-19T13:04:37.207Z,41.75
2019-03-19T13:05:33.017Z,41.28
2019-03-19T13:06:35.269Z,41.56